createdAt,value
2017-11-01T00:01:42.814Z,73.10
2017-11-01T00:04:45.204Z,59.97
2017-11-01T00:07:47.226Z,58.27
2017-11-01T00:10:49.995Z,64.43
2017-11-01T00:13:52.014Z,62.33
2017-11-01T00:16:54.818Z,62.83
2017-11-01T00:19:57.527Z,60.77
2017-11-01T00:22:59.424Z,61.10
2017-11-01T00:26:01.437Z,62.13
2017-11-01T00:29:03.330Z,68.33
2017-11-01T00:32:05.306Z,61.67
2017-11-01T00:35:07.305Z,64.60
2017-11-01T00:38:09.241Z,57.43
2017-11-01T00:41:11.137Z,58.50
2017-11-01T00:44:13.090Z,56.53
2017-11-01T00:47:15.003Z,61.33
2017-11-01T00:50:17.046Z,53.57
2017-11-01T00:53:19.002Z,61.17
2017-11-01T00:56:20.961Z,59.80
2017-11-01T00:59:22.954Z,52.03
2017-11-01T01:02:24.872Z,48.53
2017-11-01T01:05:27.535Z,51.97
2017-11-01T01:08:29.507Z,57.47
2017-11-01T01:11:31.426Z,55.23
2017-11-01T01:14:34.135Z,53.40
2017-11-01T01:17:36.894Z,56.60
2017-11-01T01:20:39.427Z,57.00
2017-11-01T01:23:42.094Z,56.80
2017-11-01T01:26:44.399Z,55.80
2017-11-01T01:29:46.366Z,59.07
2017-11-01T01:32:48.304Z,55.50
2017-11-01T01:35:50.208Z,58.80
2017-11-01T01:38:52.541Z,66.03
2017-11-01T01:41:54.468Z,67.27
2017-11-01T01:44:56.825Z,62.10
2017-11-01T01:47:58.777Z,58.20
2017-11-01T01:51:00.859Z,67.03
2017-11-01T01:54:02.791Z,62.03
2017-11-01T01:57:04.750Z,68.33
2017-11-01T02:00:06.703Z,67.03
2017-11-01T02:03:08.814Z,59.27
2017-11-01T02:06:11.386Z,63.37
2017-11-01T02:09:13.394Z,63.90
2017-11-01T02:12:16.058Z,65.73
2017-11-01T02:15:18.359Z,63.23
2017-11-01T02:18:20.246Z,74.13
2017-11-01T02:21:22.497Z,67.20
2017-11-01T02:24:24.395Z,77.80
2017-11-01T02:27:26.722Z,70.57
2017-11-01T02:30:28.638Z,78.83
2017-11-01T02:33:30.904Z,76.23
2017-11-01T02:36:33.607Z,82.10
2017-11-01T02:39:36.596Z,76.13
2017-11-01T02:42:40.031Z,78.77
2017-11-01T02:45:42.732Z,73.00
2017-11-01T02:48:45.396Z,74.50
2017-11-01T02:51:47.691Z,85.87
2017-11-01T02:54:49.679Z,78.47
2017-11-01T02:57:51.605Z,90.43
2017-11-01T03:00:54.293Z,81.50
2017-11-01T03:03:57.522Z,83.97
2017-11-01T03:06:59.436Z,94.47
2017-11-01T03:10:01.411Z,107.73
2017-11-01T03:13:03.445Z,98.73
2017-11-01T03:16:06.553Z,95.37
2017-11-01T03:19:08.458Z,89.07
2017-11-01T03:22:10.825Z,100.60
2017-11-01T03:25:12.750Z,95.17
2017-11-01T03:28:15.395Z,99.97
2017-11-01T03:31:17.333Z,97.07
2017-11-01T03:34:19.290Z,89.93
2017-11-01T03:37:22.003Z,104.70
2017-11-01T03:40:24.324Z,92.10
2017-11-01T03:43:26.237Z,96.37
2017-11-01T03:46:28.583Z,96.57
2017-11-01T03:49:30.481Z,96.80
2017-11-01T03:52:32.775Z,100.97
2017-11-01T03:55:34.669Z,104.07
2017-11-01T03:58:36.982Z,101.03
2017-11-01T04:01:38.914Z,98.57
2017-11-01T04:04:40.845Z,103.67
2017-11-01T04:07:42.853Z,110.90
2017-11-01T04:10:44.795Z,102.60
2017-11-01T04:13:48.225Z,123.43
2017-11-01T04:16:51.331Z,105.60
2017-11-01T04:19:53.306Z,115.40
2017-11-01T04:22:55.425Z,114.10
2017-11-01T04:25:57.357Z,126.73
2017-11-01T04:28:59.283Z,117.97
2017-11-01T04:32:01.206Z,123.90
2017-11-01T04:35:03.397Z,129.43
2017-11-01T04:38:05.343Z,131.63
2017-11-01T04:41:07.724Z,143.20
2017-11-01T04:44:10.403Z,141.60
2017-11-01T04:47:12.322Z,140.83
2017-11-01T04:50:14.218Z,147.07
2017-11-01T04:53:16.656Z,151.20
2017-11-01T04:56:18.556Z,152.03
2017-11-01T04:59:21.280Z,143.70
2017-11-01T05:02:23.769Z,162.20
2017-11-01T05:05:26.126Z,174.57
2017-11-01T05:08:28.105Z,164.40
2017-11-01T05:11:30.066Z,170.07
2017-11-01T05:14:31.971Z,170.67
2017-11-01T05:17:34.362Z,178.00
2017-11-01T05:20:36.265Z,206.83
2017-11-01T05:23:39.296Z,196.23
2017-11-01T05:26:41.225Z,194.97
2017-11-01T05:29:43.503Z,202.20
2017-11-01T05:32:45.404Z,205.23
2017-11-01T05:35:47.321Z,194.20
2017-11-01T05:38:49.431Z,183.60
2017-11-01T05:41:51.766Z,210.90
2017-11-01T05:44:53.695Z,215.87
2017-11-01T05:47:55.826Z,193.80
2017-11-01T05:50:57.753Z,187.13
2017-11-01T05:53:59.685Z,184.93
2017-11-01T05:57:01.621Z,195.57
2017-11-01T06:00:03.961Z,202.83
2017-11-01T06:03:05.887Z,202.47
2017-11-01T06:06:08.224Z,203.80
2017-11-01T06:09:10.142Z,189.33
2017-11-01T06:12:13.503Z,172.43
2017-11-01T06:15:15.409Z,194.63
2017-11-01T06:18:17.426Z,176.70
2017-11-01T06:21:20.962Z,171.53
2017-11-01T06:24:23.233Z,185.57
2017-11-01T06:27:25.903Z,184.17
2017-11-01T06:30:27.826Z,191.83
2017-11-01T06:33:29.751Z,186.33
2017-11-01T06:36:32.041Z,195.87
2017-11-01T06:39:33.967Z,201.43
2017-11-01T06:42:36.722Z,171.70
2017-11-01T06:45:38.629Z,191.67
2017-11-01T06:48:40.798Z,187.53
2017-11-01T06:51:42.727Z,204.27
2017-11-01T06:54:44.690Z,190.70
2017-11-01T06:57:47.362Z,170.27
2017-11-01T07:00:49.375Z,191.13
2017-11-01T07:03:51.345Z,184.97
2017-11-01T07:06:53.329Z,180.10
2017-11-01T07:09:55.751Z,181.53
2017-11-01T07:12:57.804Z,176.83
2017-11-01T07:16:00.451Z,177.67
2017-11-01T07:19:02.393Z,197.80
2017-11-01T07:22:04.322Z,176.97
2017-11-01T07:25:06.379Z,176.17
2017-11-01T07:28:09.064Z,178.33
2017-11-01T07:31:11.845Z,174.17
2017-11-01T07:34:13.844Z,155.97
2017-11-01T07:37:15.902Z,180.40
2017-11-01T07:40:17.858Z,145.23
2017-11-01T07:43:20.198Z,145.70
2017-11-01T07:46:22.095Z,165.37
2017-11-01T07:49:25.030Z,171.77
2017-11-01T07:52:27.034Z,159.23
2017-11-01T07:55:29.461Z,151.33
2017-11-01T07:58:31.362Z,152.73
2017-11-01T08:01:34.054Z,163.57
2017-11-01T08:04:36.737Z,175.87
2017-11-01T08:07:38.937Z,185.90
2017-11-01T08:10:40.860Z,158.90
2017-11-01T08:13:43.185Z,172.17
2017-11-01T08:16:45.194Z,154.80
2017-11-01T08:19:48.050Z,160.20
2017-11-01T08:22:50.105Z,180.10
2017-11-01T08:25:52.449Z,151.90
2017-11-01T08:28:54.348Z,178.83
2017-11-01T08:31:56.635Z,175.67
2017-11-01T08:34:58.545Z,156.23
2017-11-01T08:38:00.573Z,176.30
2017-11-01T08:41:02.585Z,153.17
2017-11-01T08:44:04.507Z,154.07
2017-11-01T08:47:06.426Z,153.17
2017-11-01T08:50:08.342Z,155.53
2017-11-01T08:53:10.308Z,144.83
2017-11-01T08:56:12.299Z,156.00
2017-11-01T08:59:14.289Z,152.97
2017-11-01T09:02:16.238Z,149.30
2017-11-01T09:05:18.174Z,145.07
2017-11-01T09:08:20.131Z,158.33
2017-11-01T09:11:22.145Z,154.67
2017-11-01T09:14:24.078Z,159.97
2017-11-01T09:17:26.005Z,147.97
2017-11-01T09:20:27.979Z,136.57
2017-11-01T09:23:30.030Z,130.80
2017-11-01T09:26:32.062Z,139.60
2017-11-01T09:29:33.971Z,125.23
2017-11-01T09:32:36.041Z,132.60
2017-11-01T09:35:39.042Z,127.30
2017-11-01T09:38:40.981Z,131.53
2017-11-01T09:41:43.774Z,138.90
2017-11-01T09:44:46.526Z,132.93
2017-11-01T09:47:48.681Z,151.10
2017-11-01T09:50:50.727Z,128.27
2017-11-01T09:53:52.634Z,134.07
2017-11-01T09:56:54.674Z,138.53
2017-11-01T09:59:56.609Z,133.43
2017-11-01T10:02:58.639Z,133.27
2017-11-01T10:06:00.551Z,133.93
2017-11-01T10:09:03.327Z,125.27
2017-11-01T10:12:06.865Z,121.87
2017-11-01T10:15:08.834Z,120.17
2017-11-01T10:18:10.769Z,123.93
2017-11-01T10:21:12.715Z,114.43
2017-11-01T10:24:14.646Z,141.63
2017-11-01T10:27:16.573Z,131.77
2017-11-01T10:30:18.535Z,128.40
2017-11-01T10:33:20.548Z,116.23
2017-11-01T10:36:23.340Z,109.80
2017-11-01T10:39:25.315Z,113.03
2017-11-01T10:42:27.294Z,120.90
2017-11-01T10:45:29.270Z,105.67
2017-11-01T10:48:31.281Z,111.87
2017-11-01T10:51:34.032Z,117.77
2017-11-01T10:54:36.638Z,128.97
2017-11-01T10:57:38.573Z,111.50
2017-11-01T11:00:41.234Z,109.30
2017-11-01T11:03:43.235Z,122.27
2017-11-01T11:06:45.215Z,113.93
2017-11-01T11:09:47.202Z,127.80
2017-11-01T11:12:49.890Z,117.53
2017-11-01T11:15:51.903Z,122.60
2017-11-01T11:18:53.999Z,113.17
2017-11-01T11:21:56.791Z,118.97
2017-11-01T11:24:58.767Z,110.05
2017-11-01T11:28:00.690Z,111.03
2017-11-01T11:31:02.629Z,114.90
2017-11-01T11:34:04.561Z,120.43
2017-11-01T11:37:06.491Z,97.87
2017-11-01T11:40:08.482Z,103.37
2017-11-01T11:43:10.393Z,110.87
2017-11-01T11:46:12.343Z,115.27
2017-11-01T11:49:14.242Z,122.03
2017-11-01T11:52:16.951Z,123.60
2017-11-01T11:55:19.620Z,116.32
2017-11-01T11:58:21.587Z,120.67
2017-11-01T12:01:23.487Z,118.87
2017-11-01T12:04:25.445Z,109.50
2017-11-01T12:07:27.614Z,113.85
2017-11-01T12:10:29.566Z,122.23
2017-11-01T12:13:32.360Z,103.68
2017-11-01T12:16:35.125Z,108.00
2017-11-01T12:19:37.098Z,112.45
2017-11-01T12:22:39.054Z,99.60
2017-11-01T12:25:40.984Z,100.70
2017-11-01T12:28:42.943Z,90.33
2017-11-01T12:31:44.970Z,89.63
2017-11-01T12:34:47.761Z,96.60
2017-11-01T12:37:49.664Z,107.63
2017-11-01T12:40:52.444Z,85.13
2017-11-01T12:43:54.422Z,87.60
2017-11-01T12:46:56.406Z,94.90
2017-11-01T12:49:59.091Z,96.40
2017-11-01T12:53:01.115Z,96.37
2017-11-01T12:56:03.850Z,88.50
2017-11-01T12:59:05.981Z,90.20
2017-11-01T13:02:07.964Z,90.50
2017-11-01T13:05:09.891Z,104.85
2017-11-01T13:08:11.813Z,88.78
2017-11-01T13:11:14.287Z,87.30
2017-11-01T13:14:16.315Z,85.47
2017-11-01T13:17:18.258Z,97.60
2017-11-01T13:20:20.162Z,97.30
2017-11-01T13:23:22.133Z,90.47
2017-11-01T13:26:24.142Z,104.12
2017-11-01T13:29:26.066Z,89.57
2017-11-01T13:32:28.000Z,92.97
2017-11-01T13:35:29.925Z,104.93
2017-11-01T13:38:31.862Z,89.67
2017-11-01T13:41:33.825Z,81.65
2017-11-01T13:44:35.840Z,94.83
2017-11-01T13:47:38.610Z,93.90
2017-11-01T13:50:40.542Z,83.43
2017-11-01T13:53:43.402Z,96.00
2017-11-01T13:56:45.385Z,94.27
2017-11-01T13:59:47.305Z,83.97
2017-11-01T14:02:50.023Z,95.93
2017-11-01T14:05:52.041Z,93.73
2017-11-01T14:08:53.958Z,86.83
2017-11-01T14:11:57.375Z,86.40
2017-11-01T14:15:01.001Z,91.80
2017-11-01T14:18:03.801Z,75.40
2017-11-01T14:21:06.481Z,94.00
2017-11-01T14:24:08.473Z,94.97
2017-11-01T14:27:10.464Z,94.17
2017-11-01T14:30:12.459Z,80.93
2017-11-01T14:33:15.122Z,86.30
2017-11-01T14:36:17.107Z,79.85
2017-11-01T14:39:19.009Z,93.27
2017-11-01T14:42:21.819Z,82.60
2017-11-01T14:45:25.260Z,82.95
2017-11-01T14:48:27.307Z,82.72
2017-11-01T14:51:29.349Z,80.60
2017-11-01T14:54:31.277Z,89.35
2017-11-01T14:57:33.239Z,78.17
2017-11-01T15:00:35.249Z,89.33
2017-11-01T15:03:38.111Z,86.13
2017-11-01T15:06:40.101Z,85.83
2017-11-01T15:09:42.040Z,92.97
2017-11-01T15:12:43.982Z,76.23
2017-11-01T15:15:45.890Z,77.20
2017-11-01T15:18:48.609Z,86.00
2017-11-01T15:21:50.506Z,77.53
2017-11-01T15:24:52.433Z,80.80
2017-11-01T15:27:54.354Z,75.23
2017-11-01T15:30:56.302Z,80.15
2017-11-01T15:33:58.277Z,78.87
2017-11-01T15:37:00.229Z,69.10
2017-11-01T15:40:02.160Z,88.93
2017-11-01T15:43:05.585Z,94.40
2017-11-01T15:46:07.539Z,85.23
2017-11-01T15:49:09.523Z,78.47
2017-11-01T15:52:11.506Z,72.43
2017-11-01T15:55:14.958Z,75.93
2017-11-01T15:58:16.888Z,70.10
2017-11-01T16:01:19.694Z,83.77
2017-11-01T16:04:21.589Z,65.33
2017-11-01T16:07:23.528Z,81.13
2017-11-01T16:10:25.449Z,83.60
2017-11-01T16:13:27.417Z,75.30
2017-11-01T16:16:29.319Z,85.77
2017-11-01T16:19:31.288Z,82.63
2017-11-01T16:22:33.211Z,83.50
2017-11-01T16:25:35.991Z,100.00
2017-11-01T16:28:37.929Z,76.53
2017-11-01T16:31:39.941Z,93.67
2017-11-01T16:34:41.980Z,76.10
2017-11-01T16:37:44.030Z,78.80
2017-11-01T16:40:46.637Z,79.30
2017-11-01T16:43:48.562Z,78.80
2017-11-01T16:46:50.523Z,85.87
2017-11-01T16:49:53.425Z,88.30
2017-11-01T16:52:56.116Z,86.63
2017-11-01T16:55:58.469Z,84.70
2017-11-01T16:59:00.371Z,83.00
2017-11-01T17:02:02.304Z,79.07
2017-11-01T17:05:04.231Z,82.50
2017-11-01T17:08:06.318Z,77.67
2017-11-01T17:11:08.321Z,77.93
2017-11-01T17:14:10.310Z,73.90
2017-11-01T17:17:13.127Z,83.43
2017-11-01T17:20:15.857Z,85.17
2017-11-01T17:23:18.393Z,77.13
2017-11-01T17:26:20.345Z,76.20
2017-11-01T17:29:22.258Z,90.37
2017-11-01T17:32:25.827Z,86.60
2017-11-01T17:35:27.987Z,75.80
2017-11-01T17:38:30.783Z,78.83
2017-11-01T17:41:32.687Z,83.23
2017-11-01T17:44:35.397Z,77.03
2017-11-01T17:47:37.338Z,81.33
2017-11-01T17:50:39.872Z,79.00
2017-11-01T17:53:41.832Z,84.83
2017-11-01T17:56:43.752Z,80.97
2017-11-01T17:59:46.214Z,77.50
2017-11-01T18:02:48.908Z,92.80
2017-11-01T18:05:50.803Z,79.17
2017-11-01T18:08:54.177Z,81.57
2017-11-01T18:11:56.246Z,73.17
2017-11-01T18:14:58.254Z,77.97
2017-11-01T18:18:00.192Z,71.73
2017-11-01T18:21:02.116Z,81.13
2017-11-01T18:24:04.048Z,85.23
2017-11-01T18:27:06.011Z,77.30
2017-11-01T18:30:08.703Z,77.97
2017-11-01T18:33:12.295Z,89.40
2017-11-01T18:36:14.285Z,80.83
2017-11-01T18:39:16.241Z,77.57
2017-11-01T18:42:18.247Z,68.57
2017-11-01T18:45:20.268Z,72.07
2017-11-01T18:48:22.926Z,74.47
2017-11-01T18:51:24.927Z,75.73
2017-11-01T18:54:26.824Z,67.27
2017-11-01T18:57:29.534Z,77.07
2017-11-01T19:00:32.328Z,63.23
2017-11-01T19:03:35.024Z,66.67
2017-11-01T19:06:37.677Z,76.80
2017-11-01T19:09:39.834Z,70.97
2017-11-01T19:12:41.861Z,70.63
2017-11-01T19:15:43.858Z,67.53
2017-11-01T19:18:45.771Z,69.27
2017-11-01T19:21:48.458Z,68.53
2017-11-01T19:24:50.438Z,71.90
2017-11-01T19:27:52.394Z,70.07
2017-11-01T19:30:54.342Z,63.33
2017-11-01T19:33:56.400Z,70.23
2017-11-01T19:36:59.074Z,71.97
2017-11-01T19:40:01.045Z,71.87
2017-11-01T19:43:03.061Z,71.47
2017-11-01T19:46:05.772Z,73.37
2017-11-01T19:49:08.531Z,65.70
2017-11-01T19:52:10.676Z,63.10
2017-11-01T19:55:12.603Z,71.63
2017-11-01T19:58:14.587Z,70.43
2017-11-01T20:01:16.486Z,73.47
2017-11-01T20:04:19.956Z,60.03
2017-11-01T20:07:21.859Z,59.13
2017-11-01T20:10:23.809Z,65.57
2017-11-01T20:13:25.839Z,67.47
2017-11-01T20:16:27.907Z,72.77
2017-11-01T20:19:29.837Z,75.87
2017-11-01T20:22:32.618Z,69.40
2017-11-01T20:25:34.590Z,58.30
2017-11-01T20:28:36.518Z,71.57
2017-11-01T20:31:38.466Z,67.80
2017-11-01T20:34:41.266Z,69.47
2017-11-01T20:37:43.249Z,71.60
2017-11-01T20:40:45.211Z,69.13
2017-11-01T20:43:47.164Z,74.17
2017-11-01T20:46:49.174Z,67.60
2017-11-01T20:49:51.206Z,67.00
2017-11-01T20:52:53.163Z,70.17
2017-11-01T20:55:55.058Z,66.80
2017-11-01T20:58:58.427Z,63.23
2017-11-01T21:02:00.349Z,70.33
2017-11-01T21:05:03.061Z,61.07
2017-11-01T21:08:05.836Z,60.67
2017-11-01T21:11:07.801Z,72.60
2017-11-01T21:14:09.837Z,71.53
2017-11-01T21:17:12.553Z,67.63
2017-11-01T21:20:14.491Z,65.77
2017-11-01T21:23:16.430Z,61.90
2017-11-01T21:26:18.441Z,59.67
2017-11-01T21:29:20.446Z,57.80
2017-11-01T21:32:22.422Z,51.50
2017-11-01T21:35:24.366Z,51.13
2017-11-01T21:38:26.293Z,48.13
2017-11-01T21:41:28.276Z,49.00
2017-11-01T21:44:30.260Z,53.27
2017-11-01T21:47:32.224Z,51.07
2017-11-01T21:50:34.218Z,48.93
2017-11-01T21:53:36.186Z,43.47
2017-11-01T21:56:38.167Z,49.80
2017-11-01T21:59:40.725Z,41.30
2017-11-01T22:02:43.705Z,43.80
2017-11-01T22:05:45.711Z,41.67
2017-11-01T22:08:47.662Z,45.77
2017-11-01T22:11:49.615Z,44.50
2017-11-01T22:14:51.717Z,40.47
2017-11-01T22:17:53.716Z,43.37
2017-11-01T22:20:55.674Z,43.70
2017-11-01T22:23:57.697Z,37.77
2017-11-01T22:27:00.364Z,39.07
2017-11-01T22:30:02.784Z,48.97
2017-11-01T22:33:04.733Z,42.87
2017-11-01T22:36:06.717Z,38.83
2017-11-01T22:39:08.642Z,36.87
2017-11-01T22:42:11.327Z,32.40
2017-11-01T22:45:13.281Z,42.47
2017-11-01T22:48:15.234Z,38.40
2017-11-01T22:51:17.165Z,39.70
2017-11-01T22:54:19.965Z,36.47
2017-11-01T22:57:21.962Z,35.57
2017-11-01T23:00:23.935Z,37.93
2017-11-01T23:03:26.330Z,32.53
2017-11-01T23:06:28.290Z,26.77
2017-11-01T23:09:30.183Z,30.73
2017-11-01T23:12:32.173Z,30.60
2017-11-01T23:15:35.594Z,29.60
2017-11-01T23:18:37.576Z,37.40
2017-11-01T23:21:39.565Z,31.10
2017-11-01T23:24:41.479Z,27.27
2017-11-01T23:27:43.493Z,28.80
2017-11-01T23:30:45.424Z,32.40
2017-11-01T23:33:48.186Z,28.80
2017-11-01T23:36:50.126Z,27.77
2017-11-01T23:39:52.041Z,29.63
2017-11-01T23:42:54.034Z,27.83
2017-11-01T23:45:56.058Z,32.37
2017-11-01T23:48:58.732Z,23.97
2017-11-01T23:52:00.667Z,22.77
2017-11-01T23:55:02.573Z,21.47
2017-11-01T23:58:04.556Z,27.73
